• Join FlightAware (Why Join?)
  • Login
  • US Flag 
06:17AM EDT


 

Airport Tracker/Info


-or-


 

Live Flight TrackerFlight Track Log ✈ N8986W ✈ 16-Jun-2013 ✈ KMCN - X60

Flight Track Log - Related Links

Times and Time Zones

All times are in EDT time to prevent confusion due to time zone crossing. See the N8986W flight status page for this flight to view local times or setup timezone preferences in your user account.

Time Position Orientation Groundspeed Altitude Reporting Facility
EDT Latitude Longitude Course Direction KTS MPH feet Rate Location/Type
07:25PM 32.6833 -83.6667 140° Southeast 83 96 1,000  Level Atlanta TRACON
07:26PM 32.6667 -83.6500 140° Southeast 72 83 1,600 540 Climbing Atlanta TRACON
07:27PM 32.6500 -83.6500 180° South 70 81 2,100 420 Climbing Atlanta TRACON
07:28PM 32.6167 -83.6333 157° South 91 105 2,500 420 Climbing Atlanta TRACON
07:29PM 32.6000 -83.6167 140° Southeast 92 106 3,000 420 Climbing Atlanta TRACON
07:30PM 32.5667 -83.6167 180° South 94 108 3,400 420 Climbing Atlanta TRACON
07:31PM 32.5500 -83.6000 140° Southeast 96 110 3,900 420 Climbing Atlanta TRACON
07:32PM 32.5167 -83.6000 180° South 95 109 4,300 480 Climbing Atlanta TRACON
07:33PM 32.5000 -83.6000 180° South 91 105 4,900 480 Climbing Atlanta TRACON
07:34PM 32.4667 -83.5833 157° South 97 112 5,400 420 Climbing Atlanta TRACON
07:35PM 32.4500 -83.5667 140° Southeast 95 109 5,800 360 Climbing Atlanta TRACON
07:36PM 32.4167 -83.5667 180° South 107 123 6,200 360 Climbing Atlanta TRACON
07:37PM 32.3833 -83.5500 157° South 112 129 6,600 360 Climbing Atlanta TRACON
07:38PM 32.3500 -83.5333 157° South 115 132 7,000 300 Climbing Atlanta TRACON
07:39PM 32.3319 -83.5344 183° South 117 135 7,200 180 Climbing Jacksonville Center
07:40PM 32.2986 -83.5169 156° South 117 135 7,400 60 Climbing Jacksonville Center
07:41PM 32.2611 -83.5019 161° South 128 147 7,400 -60 Level Jacksonville Center
07:43PM 32.1903 -83.4792 165° South 135 155 7,300  Descending Jacksonville Center
07:44PM 32.1569 -83.4644 159° South 135 155 7,400  Climbing Jacksonville Center
07:46PM 32.1063 -83.4243 164° South  Level FlightAware Approximate
07:48PM 32.0131 -83.4144 164° South 135 155 7,300  Level Jacksonville Center
07:49PM 31.9775 -83.3994 160° South 135 155 7,400  Climbing Jacksonville Center
07:50PM 31.9400 -83.3894 167° South 135 155 7,400  Level Jacksonville Center
07:52PM 31.8692 -83.3647 163° South 140 161 7,400  Level Jacksonville Center
07:53PM 31.8709 -83.3456 164° South  Level FlightAware Approximate
07:53PM 31.8317 -83.3497 161° South 145 167 7,400  Level Jacksonville Center
07:54PM 31.7961 -83.3325 158° South 145 167 7,500  Climbing Jacksonville Center
07:56PM 31.7408 -83.3110 162° South  Level FlightAware Approximate
07:57PM 31.6794 -83.2906 162° South 145 167 7,400  Level Jacksonville Center
07:58PM 31.6397 -83.2781 165° South 145 167 7,400  Level Jacksonville Center
08:00PM 31.5856 -83.2511 157° South  Level FlightAware Approximate
08:02PM 31.4875 -83.2239 163° South 145 167 7,400  Level Jacksonville Center
08:03PM 31.4522 -83.2019 152° Southeast 145 167 7,300  Descending Jacksonville Center
08:05PM 31.3769 -83.1797 166° South 145 167 7,400  Climbing Jacksonville Center
08:06PM 31.3394 -83.1697 167° South 145 167 7,400  Level Jacksonville Center
08:07PM 31.3495 -83.1649 163° South  Level FlightAware Approximate
08:07PM 31.3039 -83.1503 155° Southeast 145 167 7,400  Level Jacksonville Center
08:08PM 31.2706 -83.1308 153° Southeast 145 167 7,400  Level Jacksonville Center
08:09PM 31.2350 -83.1161 161° South 145 167 7,400  Level Jacksonville Center
08:11PM 31.1581 -83.0942 166° South 145 167 7,400  Level Jacksonville Center
08:13PM 31.0850 -83.0672 162° South 145 167 7,400  Level Jacksonville Center
08:14PM 31.0472 -83.0550 165° South 145 167 7,500  Climbing Jacksonville Center
08:15PM 31.0139 -83.0356 153° Southeast 145 167 7,500 -60 Level Jacksonville Center
08:16PM 30.9783 -83.0186 158° South 145 167 7,400  Descending Jacksonville Center
08:17PM 30.9431 -82.9992 155° Southeast 145 167 7,500 60 Climbing Jacksonville Center
08:18PM 30.9075 -82.9992 180° South 140 161 7,600 300 Climbing Jacksonville Center
08:19PM 30.8761 -82.9869 162° South 134 154 8,100 300 Climbing Jacksonville Center
08:20PM 30.8492 -82.9628 142° Southeast 129 148 8,200 -60 Climbing Jacksonville Center
08:21PM 30.8094 -82.9556 171° South 129 148 8,000 -300 Descending Jacksonville Center
08:22PM 30.7697 -82.9481 171° South 135 155 7,700 -300 Descending Jacksonville Center
08:23PM 30.7300 -82.9386 168° South 149 171 7,400 -240 Descending Jacksonville Center
08:24PM 30.6925 -82.9239 161° South 149 171 7,300 -60 Descending Jacksonville Center
08:25PM 30.6569 -82.9069 158° South 143 165 7,300  Level Jacksonville Center
08:26PM 30.6256 -82.8925 158° South 143 165 7,300  Level Jacksonville Center
08:27PM 30.5839 -82.8925 180° South 143 165 7,300  Level Jacksonville Center
08:28PM 30.5525 -82.8903 177° South 133 153 7,300  Level Jacksonville Center
08:29PM 30.5169 -82.8925 183° South 128 147 7,400  Climbing Jacksonville Center
08:30PM 30.4836 -82.8950 184° South 128 147 7,400  Level Jacksonville Center
08:31PM 30.4481 -82.8975 183° South 122 140 7,400 -60 Level Jacksonville Center
08:32PM 30.4189 -82.8950 176° South 122 140 7,300  Descending Jacksonville Center
08:33PM 30.3792 -82.8853 168° South 122 140 7,400  Climbing Jacksonville Center
08:34PM 30.3458 -82.8806 173° South 122 140 7,400  Level Jacksonville Center
08:35PM 30.3125 -82.8733 169° South 122 140 7,500  Climbing Jacksonville Center
08:36PM 30.2769 -82.8708 177° South 122 140 7,500 -120 Level Jacksonville Center
08:37PM 30.2414 -82.8758 187° South 122 140 7,300 -60 Descending Jacksonville Center
08:38PM 30.2058 -82.8831 190° South 122 140 7,400  Climbing Jacksonville Center
08:38PM 30.1892 -82.8878 194° South 130 150 7,300  Descending Jacksonville Center
08:39PM 30.1725 -82.8733 143° Southeast 122 140 7,400  Climbing Jacksonville Center
08:39PM 30.1475 -82.8733 180° South 130 150 7,300  Descending Jacksonville Center
08:40PM 30.1369 -82.8661 149° Southeast 122 140 7,400  Climbing Jacksonville Center
08:40PM 30.1119 -82.8686 185° South 129 148 7,300  Descending Jacksonville Center
08:41PM 30.1017 -82.8589 141° Southeast 122 140 7,400 60 Climbing Jacksonville Center
08:41PM 30.0806 -82.8567 175° South 126 145 7,400 -120 Level Jacksonville Center
08:42PM 30.0661 -82.8469 150° Southeast 122 140 7,300 -420 Descending Jacksonville Center
08:42PM 30.0389 -82.8469 180° South 140 161 7,000 -420 Descending Jacksonville Center
08:43PM 30.0286 -82.8444 168° South 122 140 6,900 -480 Descending Jacksonville Center
08:43PM 30.0075 -82.8517 197° South 140 161 6,600 -540 Descending Jacksonville Center
08:44PM 29.9889 -82.8567 193° South 127 146 6,400 -420 Descending Jacksonville Center
08:44PM 29.9658 -82.8686 204° Southwest 145 167 6,200 -540 Descending Jacksonville Center
08:45PM 29.9514 -82.8733 196° South 139 160 5,900 -540 Descending Jacksonville Center
08:45PM 29.9261 -82.8853 202° Southwest 149 171 5,700 -600 Descending Jacksonville Center
08:46PM 29.9136 -82.8903 199° South 151 174 5,300 -600 Descending Jacksonville Center
08:46PM 29.8950 -82.8878 173° South 168 193 5,100 -420 Descending Jacksonville Center
08:47PM 29.8739 -82.8733 149° Southeast 141 162 4,900 -720 Descending Jacksonville Center
08:47PM 29.8531 -82.8903 215° Southwest 155 178 4,400 -600 Descending Jacksonville Center
08:48PM 29.8406 -82.9022 220° Southwest 141 162 4,300 -300 Descending Jacksonville Center
08:48PM 29.8178 -82.9094 195° South 138 159 4,100 -300 Descending Jacksonville Center
08:49PM 29.8008 -82.9094 180° South 141 162 4,000 -240 Descending Jacksonville Center
08:49PM 29.7822 -82.9044 167° South 140 161 3,900 -720 Descending Jacksonville Center
08:50PM 29.7675 -82.8878 135° Southeast 141 162 3,300 -720 Descending Jacksonville Center
08:50PM 29.7444 -82.8783 160° South 142 163 3,100 -420 Descending Jacksonville Center
08:51PM 29.7175 -82.8542 142° Southeast 130 150 2,700 -420 Descending Jacksonville Center
08:52PM 29.6903 -82.8208 133° Southeast 130 150 2,300 -240 Descending Jacksonville Center
08:53PM 29.6672 -82.7969 138° Southeast 110 127 2,300  Level Jacksonville Center
08:54PM 29.6464 -82.7756 138° Southeast 105 121 2,300  Level Jacksonville Center
08:55PM 29.6256 -82.7542 138° Southeast 105 121 2,300  Level Jacksonville Center
08:57PM 29.5983 -82.7278 140° Southeast 107 123 2,300  Level Jacksonville Center
08:58PM 29.5775 -82.7064 138° Southeast 106 122 2,400  Climbing Jacksonville Center
08:59PM 29.5564 -82.6800 133° Southeast 105 121 2,300  Descending Jacksonville Center
09:00PM 29.5356 -82.6492 128° Southeast 108 124 2,400  Climbing Jacksonville Center
09:01PM 29.5125 -82.6300 144° Southeast 110 127 2,300  Descending Jacksonville Center
09:02PM 29.4894 -82.6086 141° Southeast 110 127 2,400 60 Climbing Jacksonville Center
09:04PM 29.4418 -82.5601 138° Southeast  Level FlightAware Approximate
09:11PM 29.3557 -82.4719 156° South  Level Estimated
09:12PM 29.3557 -82.4719 156° South  Level Estimated
09:13PM 29.3557 -82.4719 156° South  Level Estimated